createdAt,value
2023-05-25T00:01:59.582Z,17.60
2023-05-25T00:04:30.625Z,22.23
2023-05-25T00:06:59.194Z,18.43
2023-05-25T00:09:27.773Z,25.00
2023-05-25T00:11:56.373Z,18.93
2023-05-25T00:14:24.858Z,15.77
2023-05-25T00:16:53.255Z,12.40
2023-05-25T00:19:23.453Z,25.10
2023-05-25T00:21:52.377Z,12.20
2023-05-25T00:24:20.883Z,16.30
2023-05-25T00:26:49.243Z,18.37
2023-05-25T00:29:17.661Z,20.30
2023-05-25T00:31:46.085Z,24.40
2023-05-25T00:34:14.394Z,20.47
2023-05-25T00:36:48.282Z,22.43
2023-05-25T00:39:16.774Z,24.30
2023-05-25T00:41:47.055Z,21.10
2023-05-25T00:44:21.337Z,15.23
2023-05-25T00:46:52.086Z,16.90
2023-05-25T00:49:23.254Z,19.93
2023-05-25T00:51:54.322Z,19.50
2023-05-25T00:54:22.744Z,23.13
2023-05-25T00:56:54.550Z,21.87
2023-05-25T00:59:31.332Z,21.87
2023-05-25T01:02:04.742Z,24.60
2023-05-25T01:04:37.154Z,19.93
2023-05-25T01:07:11.438Z,18.67
2023-05-25T01:09:42.991Z,17.33
2023-05-25T01:12:12.050Z,23.20
2023-05-25T01:14:42.768Z,20.00
2023-05-25T01:17:11.900Z,21.33
2023-05-25T01:19:41.465Z,22.83
2023-05-25T01:22:21.228Z,25.13
2023-05-25T01:24:54.539Z,13.50
2023-05-25T01:27:32.585Z,19.30
2023-05-25T01:30:03.432Z,25.77
2023-05-25T01:32:34.918Z,23.83
2023-05-25T01:35:05.082Z,23.37
2023-05-25T01:37:37.558Z,22.53
2023-05-25T01:40:06.777Z,20.77
2023-05-25T01:42:35.028Z,20.43
2023-05-25T01:45:07.903Z,23.73
2023-05-25T01:47:47.945Z,21.07
2023-05-25T01:50:25.212Z,18.50
2023-05-25T01:53:03.776Z,19.90
2023-05-25T01:55:38.906Z,25.73
2023-05-25T01:58:10.722Z,20.70
2023-05-25T02:00:41.662Z,23.70
2023-05-25T02:03:14.092Z,24.23
2023-05-25T02:05:45.097Z,24.37
2023-05-25T02:08:14.981Z,23.30
2023-05-25T02:10:46.255Z,23.47
2023-05-25T02:13:14.739Z,24.63
2023-05-25T02:15:44.270Z,29.87
2023-05-25T02:18:13.780Z,22.07
2023-05-25T02:20:42.180Z,27.50
2023-05-25T02:23:10.596Z,23.73
2023-05-25T02:25:42.759Z,22.43
2023-05-25T02:28:11.625Z,28.10
2023-05-25T02:30:40.487Z,29.50
2023-05-25T02:33:09.146Z,26.03
2023-05-25T02:35:38.323Z,25.50
2023-05-25T02:38:07.521Z,31.80
2023-05-25T02:40:35.871Z,25.97
2023-05-25T02:43:05.711Z,27.70
2023-05-25T02:45:34.402Z,22.40
2023-05-25T02:48:02.816Z,21.53
2023-05-25T02:50:34.119Z,26.07
2023-05-25T02:53:06.724Z,17.90
2023-05-25T02:55:34.913Z,33.87
2023-05-25T02:58:05.258Z,23.07
2023-05-25T03:00:54.674Z,25.63
2023-05-25T03:03:23.158Z,18.67
2023-05-25T03:05:51.834Z,22.17
2023-05-25T03:08:20.219Z,22.30
2023-05-25T03:10:49.440Z,25.87
2023-05-25T03:13:20.160Z,18.93
2023-05-25T03:15:48.512Z,26.83
2023-05-25T03:18:17.457Z,22.03
2023-05-25T03:20:45.839Z,23.03
2023-05-25T03:23:14.687Z,27.97
2023-05-25T03:25:43.377Z,20.43
2023-05-25T03:28:11.987Z,24.03
2023-05-25T03:30:42.135Z,30.47
2023-05-25T03:33:13.836Z,24.57
2023-05-25T03:35:46.483Z,33.27
2023-05-25T03:38:14.911Z,23.53
2023-05-25T03:40:43.919Z,31.37
2023-05-25T03:43:12.225Z,19.73
2023-05-25T03:45:42.221Z,22.70
2023-05-25T03:48:11.854Z,22.03
2023-05-25T03:50:40.923Z,24.37
2023-05-25T03:53:09.640Z,27.50
2023-05-25T03:55:38.062Z,20.20
2023-05-25T03:58:07.009Z,22.40
2023-05-25T04:00:35.340Z,20.30
2023-05-25T04:03:06.942Z,18.63
2023-05-25T04:05:35.320Z,20.63
2023-05-25T04:08:03.578Z,21.57
2023-05-25T04:10:31.994Z,17.70
2023-05-25T04:13:00.992Z,23.93
2023-05-25T04:15:30.470Z,26.30
2023-05-25T04:18:07.466Z,31.20
2023-05-25T04:20:36.812Z,16.37
2023-05-25T04:23:06.181Z,21.33
2023-05-25T04:25:35.285Z,16.27
2023-05-25T04:28:03.843Z,20.73
2023-05-25T04:31:01.755Z,23.77
2023-05-25T04:33:45.563Z,27.77
2023-05-25T04:36:18.730Z,17.43
2023-05-25T04:38:47.965Z,16.60
2023-05-25T04:41:16.525Z,21.20
2023-05-25T04:44:05.636Z,17.83
2023-05-25T04:46:39.070Z,18.53
2023-05-25T04:49:09.967Z,18.93
2023-05-25T04:51:38.432Z,20.87
2023-05-25T04:54:10.560Z,24.03
2023-05-25T04:56:40.356Z,17.53
2023-05-25T04:59:08.652Z,20.93
2023-05-25T05:01:40.873Z,21.60
2023-05-25T05:04:12.405Z,16.67
2023-05-25T05:06:40.830Z,22.53
2023-05-25T05:09:10.473Z,18.80
2023-05-25T05:11:38.753Z,19.87
2023-05-25T05:14:09.912Z,16.03
2023-05-25T05:16:38.272Z,26.47
2023-05-25T05:19:06.612Z,18.00
2023-05-25T05:21:36.349Z,16.23
2023-05-25T05:24:07.576Z,21.87
2023-05-25T05:26:48.153Z,21.17
2023-05-25T05:29:28.690Z,17.03
2023-05-25T05:31:57.498Z,16.60
2023-05-25T05:34:26.867Z,20.30
2023-05-25T05:36:58.437Z,20.33
2023-05-25T05:39:29.063Z,28.20
2023-05-25T05:41:57.553Z,23.80
2023-05-25T05:44:29.054Z,16.00
2023-05-25T05:47:01.543Z,22.60
2023-05-25T05:49:31.696Z,22.20
2023-05-25T05:52:06.996Z,20.40
2023-05-25T05:54:35.953Z,18.30
2023-05-25T05:57:09.535Z,21.73
2023-05-25T05:59:37.802Z,28.70
2023-05-25T06:02:07.443Z,19.33
2023-05-25T06:04:35.879Z,17.33
2023-05-25T06:07:06.351Z,21.57
2023-05-25T06:09:34.719Z,22.03
2023-05-25T06:12:03.592Z,23.90
2023-05-25T06:14:32.134Z,13.67
2023-05-25T06:17:03.495Z,20.70
2023-05-25T06:19:32.107Z,22.23
2023-05-25T06:22:00.563Z,23.73
2023-05-25T06:24:31.303Z,26.00
2023-05-25T06:26:59.555Z,21.83
2023-05-25T06:29:27.846Z,20.07
2023-05-25T06:31:56.228Z,17.50
2023-05-25T06:34:25.998Z,21.53
2023-05-25T06:36:54.844Z,17.83
2023-05-25T06:39:23.484Z,18.73
2023-05-25T06:41:53.993Z,15.93
2023-05-25T06:44:31.834Z,22.57
2023-05-25T06:47:03.740Z,20.53
2023-05-25T06:49:32.770Z,19.10
2023-05-25T06:52:01.052Z,19.67
2023-05-25T06:54:29.373Z,16.13
2023-05-25T06:56:58.969Z,14.63
2023-05-25T06:59:27.216Z,18.70
2023-05-25T07:01:56.495Z,15.70
2023-05-25T07:04:24.885Z,18.27
2023-05-25T07:06:53.248Z,13.80
2023-05-25T07:09:21.856Z,13.80
2023-05-25T07:11:50.084Z,11.40
2023-05-25T07:14:19.911Z,15.57
2023-05-25T07:16:48.298Z,20.97
2023-05-25T07:19:16.595Z,17.30
2023-05-25T07:21:44.850Z,19.20
2023-05-25T07:24:13.066Z,14.47
2023-05-25T07:26:41.314Z,13.93
2023-05-25T07:29:09.633Z,18.73
2023-05-25T07:31:39.564Z,14.60
2023-05-25T07:34:08.046Z,17.37
2023-05-25T07:36:36.407Z,13.60
2023-05-25T07:39:05.022Z,11.87
2023-05-25T07:41:33.764Z,13.00
2023-05-25T07:44:02.038Z,18.83
2023-05-25T07:46:30.571Z,18.80
2023-05-25T07:49:00.398Z,14.60
2023-05-25T07:51:31.241Z,13.20
2023-05-25T07:53:59.524Z,9.97
2023-05-25T07:56:28.828Z,12.63
2023-05-25T07:58:58.047Z,10.70
2023-05-25T08:01:27.157Z,13.97
2023-05-25T08:03:55.737Z,13.30
2023-05-25T08:06:25.863Z,15.47
2023-05-25T08:08:54.165Z,12.67
2023-05-25T08:11:26.381Z,12.60
2023-05-25T08:13:54.636Z,13.67
2023-05-25T08:16:22.974Z,11.00
2023-05-25T08:18:51.463Z,12.83
2023-05-25T08:21:19.830Z,10.80
2023-05-25T08:23:50.741Z,14.33
2023-05-25T08:26:37.940Z,17.93
2023-05-25T08:29:07.877Z,18.47
2023-05-25T08:31:37.383Z,13.80
2023-05-25T08:34:05.726Z,15.37
2023-05-25T08:36:36.076Z,13.87
2023-05-25T08:39:08.228Z,13.80
2023-05-25T08:41:38.056Z,14.33
2023-05-25T08:44:08.785Z,16.00
2023-05-25T08:46:37.437Z,11.37
2023-05-25T08:49:11.621Z,11.63
2023-05-25T08:51:46.412Z,16.70
2023-05-25T08:54:19.367Z,11.47
2023-05-25T08:56:52.299Z,12.63
2023-05-25T08:59:36.846Z,13.50
2023-05-25T09:02:31.456Z,13.60
2023-05-25T09:05:01.343Z,10.00
2023-05-25T09:07:32.270Z,15.20
2023-05-25T09:10:03.193Z,14.13
2023-05-25T09:12:32.426Z,14.47
2023-05-25T09:15:01.096Z,13.80
2023-05-25T09:17:29.894Z,12.30
2023-05-25T09:19:58.436Z,15.33
2023-05-25T09:22:26.881Z,12.13
2023-05-25T09:24:55.598Z,11.20
2023-05-25T09:27:25.368Z,9.70
2023-05-25T09:29:53.947Z,14.27
2023-05-25T09:32:22.439Z,10.60
2023-05-25T09:34:51.374Z,17.80
2023-05-25T09:37:20.086Z,12.30
2023-05-25T09:39:49.172Z,8.97
2023-05-25T09:42:18.162Z,14.03
2023-05-25T09:44:47.768Z,12.37
2023-05-25T09:47:17.063Z,16.97
2023-05-25T09:49:47.594Z,13.67
2023-05-25T09:52:17.550Z,13.70
2023-05-25T09:54:46.891Z,11.53
2023-05-25T09:57:16.144Z,12.00
2023-05-25T09:59:45.590Z,11.00
2023-05-25T10:02:16.279Z,14.07
2023-05-25T10:04:46.414Z,14.23
2023-05-25T10:07:16.110Z,11.13
2023-05-25T10:09:48.481Z,12.33
2023-05-25T10:12:20.908Z,14.97
2023-05-25T10:14:54.422Z,10.90
2023-05-25T10:17:25.671Z,19.20
2023-05-25T10:19:58.629Z,14.40
2023-05-25T10:22:33.616Z,12.97
2023-05-25T10:25:14.905Z,12.73
2023-05-25T10:27:48.931Z,14.47
2023-05-25T10:30:17.259Z,14.10
2023-05-25T10:32:50.305Z,10.70
2023-05-25T10:35:20.616Z,17.60
2023-05-25T10:37:52.246Z,11.13
2023-05-25T10:40:22.802Z,14.40
2023-05-25T10:42:51.805Z,11.40
2023-05-25T10:45:21.034Z,12.93
2023-05-25T10:47:51.282Z,9.50
2023-05-25T10:50:26.270Z,10.73
2023-05-25T10:53:02.383Z,8.13
2023-05-25T10:55:42.863Z,10.00
2023-05-25T10:58:13.805Z,11.67
2023-05-25T11:00:44.933Z,7.50
2023-05-25T11:03:14.647Z,11.27
2023-05-25T11:05:51.245Z,6.97
2023-05-25T11:08:23.624Z,8.73
2023-05-25T11:10:55.221Z,9.30
2023-05-25T11:13:41.340Z,6.63
2023-05-25T11:16:24.757Z,6.90
2023-05-25T11:18:58.623Z,6.10
2023-05-25T11:21:45.992Z,8.70
2023-05-25T11:24:17.238Z,7.90
2023-05-25T11:27:01.560Z,12.00
2023-05-25T11:29:33.364Z,6.67
2023-05-25T11:32:03.012Z,10.63
2023-05-25T11:34:33.421Z,9.07
2023-05-25T11:37:04.841Z,9.60
2023-05-25T11:39:33.394Z,11.40
2023-05-25T11:42:07.078Z,8.73
2023-05-25T11:44:38.058Z,5.83
2023-05-25T11:47:13.469Z,13.47
2023-05-25T11:49:46.298Z,8.70
2023-05-25T11:52:16.168Z,8.20
2023-05-25T11:54:45.535Z,13.53
2023-05-25T11:57:19.076Z,14.17
2023-05-25T11:59:51.563Z,8.57
2023-05-25T12:02:20.601Z,9.03
2023-05-25T12:04:57.781Z,10.30
2023-05-25T12:07:28.400Z,12.37
2023-05-25T12:10:07.685Z,8.83
2023-05-25T12:12:41.624Z,14.97
2023-05-25T12:15:12.600Z,10.40
2023-05-25T12:17:44.034Z,16.50
2023-05-25T12:20:15.343Z,10.00
2023-05-25T12:22:45.123Z,10.70
2023-05-25T12:25:15.954Z,9.43
2023-05-25T12:27:44.485Z,13.07
2023-05-25T12:30:13.072Z,12.07
2023-05-25T12:33:03.773Z,11.50
2023-05-25T12:35:47.572Z,12.60
2023-05-25T12:38:18.558Z,11.97
2023-05-25T12:40:47.120Z,9.70
2023-05-25T12:43:17.618Z,10.43
2023-05-25T12:45:46.158Z,11.93
2023-05-25T12:48:14.516Z,13.47
2023-05-25T12:50:59.307Z,9.43
2023-05-25T12:53:29.081Z,12.70
2023-05-25T12:56:04.637Z,10.17
2023-05-25T12:58:32.977Z,12.30
2023-05-25T13:01:01.455Z,11.33
2023-05-25T13:03:32.305Z,11.30
2023-05-25T13:06:06.229Z,9.60
2023-05-25T13:08:34.656Z,13.40
2023-05-25T13:11:03.720Z,7.83
2023-05-25T13:13:32.047Z,9.70
2023-05-25T13:16:00.399Z,11.00
2023-05-25T13:18:28.635Z,10.20
2023-05-25T13:20:57.557Z,9.23
2023-05-25T13:23:27.542Z,7.47
2023-05-25T13:25:55.924Z,5.97
2023-05-25T13:28:24.246Z,7.50
2023-05-25T13:30:52.728Z,9.60
2023-05-25T13:33:21.690Z,12.73
2023-05-25T13:35:59.276Z,9.87
2023-05-25T13:38:29.653Z,11.37
2023-05-25T13:40:58.269Z,12.87
2023-05-25T13:43:26.711Z,9.43
2023-05-25T13:45:55.617Z,10.90
2023-05-25T13:48:24.230Z,11.30
2023-05-25T13:50:52.553Z,13.97
2023-05-25T13:53:20.747Z,11.90
2023-05-25T13:55:50.386Z,11.10
2023-05-25T13:58:18.788Z,6.87
2023-05-25T14:00:47.516Z,9.20
2023-05-25T14:03:15.905Z,11.27
2023-05-25T14:05:46.879Z,12.30
2023-05-25T14:08:15.792Z,9.07
2023-05-25T14:10:44.522Z,13.57
2023-05-25T14:13:14.416Z,11.90
2023-05-25T14:15:43.070Z,10.13
2023-05-25T14:18:11.822Z,13.43
2023-05-25T14:20:41.272Z,10.60
2023-05-25T14:23:11.873Z,9.77
2023-05-25T14:25:42.278Z,12.60
2023-05-25T14:28:10.667Z,8.10
2023-05-25T14:30:40.490Z,8.30
2023-05-25T14:33:13.978Z,10.73
2023-05-25T14:35:42.958Z,7.00
2023-05-25T14:38:11.912Z,11.33
2023-05-25T14:40:40.159Z,9.17
2023-05-25T14:43:08.475Z,16.27
2023-05-25T14:45:36.781Z,10.80
2023-05-25T14:48:16.668Z,11.03
2023-05-25T14:50:45.865Z,12.67
2023-05-25T14:53:14.164Z,14.33
2023-05-25T14:55:42.604Z,12.30
2023-05-25T14:58:11.151Z,15.30
2023-05-25T15:00:39.387Z,13.37
2023-05-25T15:03:09.157Z,16.77
2023-05-25T15:05:37.471Z,9.70
2023-05-25T15:08:05.788Z,12.13
2023-05-25T15:10:34.172Z,11.50
2023-05-25T15:13:02.451Z,13.13
2023-05-25T15:15:30.816Z,13.13
2023-05-25T15:17:59.097Z,12.60
2023-05-25T15:20:28.951Z,13.20
2023-05-25T15:22:57.230Z,11.67
2023-05-25T15:27:59.766Z,11.43
2023-05-25T15:30:28.427Z,11.43
2023-05-25T15:32:56.795Z,15.33
2023-05-25T15:35:30.966Z,15.10
2023-05-25T15:38:01.222Z,14.07
2023-05-25T15:40:29.777Z,11.80
2023-05-25T15:42:58.110Z,13.60
2023-05-25T15:45:26.793Z,10.80
2023-05-25T15:47:55.574Z,13.70
2023-05-25T15:50:23.908Z,18.23
2023-05-25T15:52:52.210Z,15.27
2023-05-25T15:55:22.204Z,12.07
2023-05-25T15:57:50.533Z,10.93
2023-05-25T16:00:19.604Z,14.30
2023-05-25T16:02:47.867Z,15.73
2023-05-25T16:05:16.321Z,16.77
2023-05-25T16:07:44.592Z,25.03
2023-05-25T16:10:12.972Z,18.00
2023-05-25T16:12:42.581Z,17.10
2023-05-25T16:15:11.446Z,18.17
2023-05-25T16:17:39.689Z,17.97
2023-05-25T16:20:10.593Z,15.90
2023-05-25T16:22:38.862Z,18.23
2023-05-25T16:25:08.664Z,15.17
2023-05-25T16:27:37.065Z,16.83
2023-05-25T16:30:10.535Z,17.77
2023-05-25T16:32:40.052Z,13.10
2023-05-25T16:35:09.390Z,19.23
2023-05-25T16:37:37.700Z,19.47
2023-05-25T16:40:07.069Z,27.23
2023-05-25T16:42:35.643Z,20.23
2023-05-25T16:45:04.123Z,18.23
2023-05-25T16:47:33.821Z,19.83
2023-05-25T16:50:02.129Z,23.77
2023-05-25T16:52:30.407Z,21.40
2023-05-25T16:54:59.284Z,21.70
2023-05-25T16:57:27.727Z,15.47
2023-05-25T16:59:56.015Z,17.60
2023-05-25T17:02:24.461Z,19.70
2023-05-25T17:04:54.126Z,23.20
2023-05-25T17:07:22.459Z,22.70
2023-05-25T17:09:50.891Z,18.73
2023-05-25T17:12:19.173Z,22.50
2023-05-25T17:14:47.301Z,20.07
2023-05-25T17:17:16.521Z,19.13
2023-05-25T17:19:44.897Z,25.40
2023-05-25T17:22:14.621Z,22.90
2023-05-25T17:24:42.967Z,21.60
2023-05-25T17:27:11.291Z,20.50
2023-05-25T17:29:39.736Z,24.07
2023-05-25T17:32:08.296Z,25.10
2023-05-25T17:34:36.677Z,19.83
2023-05-25T17:37:05.209Z,25.33
2023-05-25T17:39:35.036Z,19.80
2023-05-25T17:42:03.725Z,19.47
2023-05-25T17:44:32.235Z,22.17
2023-05-25T17:47:00.594Z,24.67
2023-05-25T17:49:28.899Z,30.40
2023-05-25T17:51:57.072Z,25.60
2023-05-25T17:54:27.323Z,25.73
2023-05-25T17:56:57.400Z,30.07
2023-05-25T17:59:25.808Z,27.63
2023-05-25T18:01:54.034Z,18.33
2023-05-25T18:04:22.342Z,20.07
2023-05-25T18:06:51.867Z,18.40
2023-05-25T18:09:20.462Z,22.67
2023-05-25T18:11:49.053Z,31.90
2023-05-25T18:14:18.880Z,23.30
2023-05-25T18:16:47.171Z,25.60
2023-05-25T18:19:17.854Z,23.00
2023-05-25T18:21:46.168Z,23.17
2023-05-25T18:24:14.588Z,28.93
2023-05-25T18:26:42.757Z,22.63
2023-05-25T18:29:11.051Z,18.60
2023-05-25T18:31:45.652Z,26.80
2023-05-25T18:34:14.441Z,20.40
2023-05-25T18:36:42.691Z,32.50
2023-05-25T18:39:11.278Z,22.33
2023-05-25T18:41:41.885Z,22.27
2023-05-25T18:44:10.275Z,30.53
2023-05-25T18:46:42.289Z,38.97
2023-05-25T18:49:10.872Z,26.80
2023-05-25T18:51:39.587Z,18.87
2023-05-25T18:54:07.854Z,21.53
2023-05-25T18:56:36.497Z,34.17
2023-05-25T18:59:04.889Z,36.43
2023-05-25T19:01:33.148Z,27.90
2023-05-25T19:04:03.185Z,20.20
2023-05-25T19:06:32.452Z,35.67
2023-05-25T19:09:00.867Z,26.60
2023-05-25T19:11:29.344Z,24.73
2023-05-25T19:13:57.638Z,28.10
2023-05-25T19:16:25.889Z,30.30
2023-05-25T19:18:54.217Z,26.80
2023-05-25T19:21:26.778Z,24.07
2023-05-25T19:23:56.293Z,33.07
2023-05-25T19:26:24.705Z,30.43
2023-05-25T19:28:53.105Z,27.00
2023-05-25T19:31:23.426Z,32.53
2023-05-25T19:33:52.113Z,23.00
2023-05-25T19:36:21.121Z,32.97
2023-05-25T19:38:51.010Z,31.87
2023-05-25T19:41:19.371Z,22.43
2023-05-25T19:43:48.399Z,24.03
2023-05-25T19:46:16.960Z,37.63
2023-05-25T19:48:45.357Z,29.07
2023-05-25T19:51:13.596Z,24.10
2023-05-25T19:53:42.100Z,25.67
2023-05-25T19:56:11.634Z,31.50
2023-05-25T19:58:39.904Z,19.97
2023-05-25T20:01:08.257Z,31.03
2023-05-25T20:03:36.832Z,30.83
2023-05-25T20:06:06.066Z,31.10
2023-05-25T20:08:34.610Z,24.13
2023-05-25T20:11:02.921Z,23.10
2023-05-25T20:13:32.708Z,22.40
2023-05-25T20:16:01.024Z,28.00
2023-05-25T20:18:29.306Z,26.67
2023-05-25T20:20:57.622Z,24.43
2023-05-25T20:23:25.836Z,20.00
2023-05-25T20:25:54.089Z,24.80
2023-05-25T20:28:22.464Z,27.50
2023-05-25T20:30:52.598Z,26.77
2023-05-25T20:33:21.759Z,24.80
2023-05-25T20:35:50.058Z,19.83
2023-05-25T20:38:18.298Z,23.13
2023-05-25T20:40:47.057Z,29.53
2023-05-25T20:43:15.396Z,34.10
2023-05-25T20:45:44.122Z,30.00
2023-05-25T20:48:14.790Z,30.70
2023-05-25T20:50:43.183Z,26.13
2023-05-25T20:53:11.777Z,32.93
2023-05-25T20:55:40.079Z,26.30
2023-05-25T20:58:08.614Z,22.90
2023-05-25T21:00:36.998Z,28.57
2023-05-25T21:03:08.432Z,29.47
2023-05-25T21:05:38.630Z,24.30
2023-05-25T21:08:06.863Z,33.10
2023-05-25T21:10:35.201Z,26.07
2023-05-25T21:13:03.672Z,28.50
2023-05-25T21:15:32.862Z,25.60
2023-05-25T21:18:03.791Z,28.30
2023-05-25T21:20:33.472Z,25.10
2023-05-25T21:23:03.418Z,36.67
2023-05-25T21:25:32.076Z,31.20
2023-05-25T21:28:00.333Z,26.67
2023-05-25T21:30:28.992Z,23.83
2023-05-25T21:32:57.569Z,22.50
2023-05-25T21:35:25.876Z,33.43
2023-05-25T21:37:54.337Z,29.20
2023-05-25T21:40:24.150Z,28.10
2023-05-25T21:42:54.423Z,27.37
2023-05-25T21:45:22.913Z,26.97
2023-05-25T21:47:51.436Z,17.77
2023-05-25T21:50:20.074Z,23.80
2023-05-25T21:52:49.527Z,39.83
2023-05-25T21:55:17.878Z,26.93
2023-05-25T21:57:47.464Z,22.40
2023-05-25T22:00:17.697Z,18.53
2023-05-25T22:02:46.025Z,27.33
2023-05-25T22:05:15.700Z,26.37
2023-05-25T22:07:44.088Z,30.40
2023-05-25T22:10:12.613Z,35.57
2023-05-25T22:12:40.878Z,24.17
2023-05-25T22:15:11.481Z,32.30
2023-05-25T22:17:39.842Z,31.50
2023-05-25T22:20:09.731Z,30.60
2023-05-25T22:22:38.151Z,29.53
2023-05-25T22:25:07.798Z,36.17
2023-05-25T22:27:36.020Z,31.33
2023-05-25T22:30:04.712Z,30.27
2023-05-25T22:32:35.158Z,20.77
2023-05-25T22:35:03.716Z,35.57
2023-05-25T22:37:32.037Z,22.80
2023-05-25T22:40:00.485Z,24.93
2023-05-25T22:42:28.829Z,26.73
2023-05-25T22:44:57.268Z,29.20
2023-05-25T22:47:27.060Z,29.27
2023-05-25T22:49:57.047Z,29.57
2023-05-25T22:52:25.383Z,29.97
2023-05-25T22:54:53.724Z,33.20
2023-05-25T22:57:22.021Z,26.03
2023-05-25T22:59:50.775Z,39.47
2023-05-25T23:02:19.069Z,34.60
2023-05-25T23:04:47.667Z,29.90
2023-05-25T23:07:17.300Z,26.43
2023-05-25T23:09:46.805Z,26.13
2023-05-25T23:12:15.143Z,37.53
2023-05-25T23:14:44.498Z,26.90
2023-05-25T23:17:12.973Z,26.80
2023-05-25T23:19:41.323Z,32.53
2023-05-25T23:22:09.663Z,29.10
2023-05-25T23:24:40.432Z,34.67
2023-05-25T23:27:09.040Z,32.43
2023-05-25T23:29:37.367Z,32.60
2023-05-25T23:32:06.835Z,28.73
2023-05-25T23:34:35.270Z,26.37
2023-05-25T23:37:06.432Z,24.87
2023-05-25T23:39:35.007Z,36.53
2023-05-25T23:42:04.930Z,33.53
2023-05-25T23:44:33.265Z,30.30
2023-05-25T23:47:01.510Z,25.43
2023-05-25T23:49:29.873Z,27.73
2023-05-25T23:51:58.107Z,26.20
2023-05-25T23:54:26.449Z,25.50
2023-05-25T23:56:54.740Z,34.93
2023-05-25T23:59:24.715Z,28.23
